sensor_id;sensor_type;location;lat;lon;timestamp;pressure;altitude;pressure_sealevel;temperature;humidity
45327;BME280;31062;49.678;24.560;2023-05-23T00:02:22;97947.88;;;10.50;60.95
45327;BME280;31062;49.678;24.560;2023-05-23T00:05:07;97957.22;;;10.54;61.29
45327;BME280;31062;49.678;24.560;2023-05-23T00:07:53;97954.59;;;10.47;61.25
45327;BME280;31062;49.678;24.560;2023-05-23T00:10:39;98102.91;;;11.42;60.94
45327;BME280;31062;49.678;24.560;2023-05-23T00:13:26;98109.94;;;11.43;61.23
45327;BME280;31062;49.678;24.560;2023-05-23T00:16:12;98118.69;;;11.49;61.51
45327;BME280;31062;49.678;24.560;2023-05-23T00:18:57;98136.50;;;11.46;61.73
45327;BME280;31062;49.678;24.560;2023-05-23T00:21:46;98143.09;;;11.41;62.29
45327;BME280;31062;49.678;24.560;2023-05-23T00:24:35;98134.47;;;11.37;62.50
45327;BME280;31062;49.678;24.560;2023-05-23T00:27:20;98008.25;;;10.42;62.68
45327;BME280;31062;49.678;24.560;2023-05-23T00:30:06;97982.56;;;10.32;62.57
45327;BME280;31062;49.678;24.560;2023-05-23T00:32:52;98124.41;;;11.32;62.58
45327;BME280;31062;49.678;24.560;2023-05-23T00:35:39;98126.72;;;11.35;62.61
45327;BME280;31062;49.678;24.560;2023-05-23T00:38:26;98124.84;;;11.38;62.96
45327;BME280;31062;49.678;24.560;2023-05-23T00:41:12;98120.31;;;11.42;62.69
45327;BME280;31062;49.678;24.560;2023-05-23T00:43:58;98122.19;;;11.40;62.37
45327;BME280;31062;49.678;24.560;2023-05-23T00:46:46;98131.09;;;11.29;62.42
45327;BME280;31062;49.678;24.560;2023-05-23T00:49:34;98105.41;;;11.19;62.35
45327;BME280;31062;49.678;24.560;2023-05-23T00:52:20;98110.66;;;11.24;61.96
45327;BME280;31062;49.678;24.560;2023-05-23T00:55:06;98110.50;;;11.22;61.99
45327;BME280;31062;49.678;24.560;2023-05-23T00:57:53;98123.66;;;11.22;62.11
45327;BME280;31062;49.678;24.560;2023-05-23T01:00:42;97969.13;;;10.18;62.21
45327;BME280;31062;49.678;24.560;2023-05-23T01:03:29;98085.69;;;10.95;62.13
45327;BME280;31062;49.678;24.560;2023-05-23T01:06:15;97953.91;;;10.00;61.97
45327;BME280;31062;49.678;24.560;2023-05-23T01:09:01;97921.16;;;9.70;62.14
45327;BME280;31062;49.678;24.560;2023-05-23T01:18:12;97935.91;;;9.82;62.42
45327;BME280;31062;49.678;24.560;2023-05-23T01:21:05;98143.19;;;11.04;62.76
45327;BME280;31062;49.678;24.560;2023-05-23T01:27:47;98112.41;;;11.10;62.65
45327;BME280;31062;49.678;24.560;2023-05-23T01:30:38;97933.44;;;9.86;62.26
45327;BME280;31062;49.678;24.560;2023-05-23T01:33:26;98127.44;;;11.07;62.45
45327;BME280;31062;49.678;24.560;2023-05-23T01:36:12;97958.50;;;9.88;62.47
45327;BME280;31062;49.678;24.560;2023-05-23T01:38:59;97930.56;;;9.57;62.74
45327;BME280;31062;49.678;24.560;2023-05-23T01:41:46;98078.59;;;10.56;62.97
45327;BME280;31062;49.678;24.560;2023-05-23T01:44:33;97930.97;;;9.54;62.86
45327;BME280;31062;49.678;24.560;2023-05-23T01:47:19;98073.88;;;10.49;62.64
45327;BME280;31062;49.678;24.560;2023-05-23T01:50:09;97933.44;;;9.50;63.18
45327;BME280;31062;49.678;24.560;2023-05-23T01:52:55;98071.16;;;10.58;62.99
45327;BME280;31062;49.678;24.560;2023-05-23T01:55:41;98098.50;;;10.81;63.53
45327;BME280;31062;49.678;24.560;2023-05-23T01:58:26;98125.94;;;10.96;63.52
45327;BME280;31062;49.678;24.560;2023-05-23T02:01:13;98066.22;;;10.76;63.29
45327;BME280;31062;49.678;24.560;2023-05-23T02:03:59;97908.91;;;9.73;63.69
45327;BME280;31062;49.678;24.560;2023-05-23T02:06:44;97947.19;;;10.03;63.73
45327;BME280;31062;49.678;24.560;2023-05-23T02:09:30;98070.63;;;10.89;63.33
45327;BME280;31062;49.678;24.560;2023-05-23T02:12:16;98075.31;;;10.96;63.22
45327;BME280;31062;49.678;24.560;2023-05-23T02:15:03;97913.63;;;9.90;63.34
45327;BME280;31062;49.678;24.560;2023-05-23T02:17:49;97910.44;;;9.93;63.29
45327;BME280;31062;49.678;24.560;2023-05-23T02:20:35;97977.63;;;10.40;63.47
45327;BME280;31062;49.678;24.560;2023-05-23T02:23:21;98073.41;;;10.98;64.32
45327;BME280;31062;49.678;24.560;2023-05-23T02:26:07;98089.78;;;11.14;63.95
45327;BME280;31062;49.678;24.560;2023-05-23T02:28:53;97902.41;;;9.88;64.29
45327;BME280;31062;49.678;24.560;2023-05-23T02:31:39;98091.22;;;11.15;63.91
45327;BME280;31062;49.678;24.560;2023-05-23T02:34:24;98086.56;;;11.08;65.15
45327;BME280;31062;49.678;24.560;2023-05-23T02:37:10;98039.38;;;10.69;65.42
45327;BME280;31062;49.678;24.560;2023-05-23T02:39:55;97906.00;;;9.71;65.42
45327;BME280;31062;49.678;24.560;2023-05-23T02:42:41;98049.16;;;10.70;65.62
45327;BME280;31062;49.678;24.560;2023-05-23T02:45:26;97977.81;;;10.15;65.27
45327;BME280;31062;49.678;24.560;2023-05-23T02:48:12;97931.97;;;9.85;65.23
45327;BME280;31062;49.678;24.560;2023-05-23T02:50:58;98078.50;;;10.92;65.29
45327;BME280;31062;49.678;24.560;2023-05-23T02:53:43;98076.19;;;10.89;64.72
45327;BME280;31062;49.678;24.560;2023-05-23T02:56:29;98056.91;;;10.81;64.82
45327;BME280;31062;49.678;24.560;2023-05-23T02:59:15;98103.47;;;10.92;65.32
45327;BME280;31062;49.678;24.560;2023-05-23T03:02:02;98035.84;;;10.59;65.43
45327;BME280;31062;49.678;24.560;2023-05-23T03:04:48;97888.78;;;9.63;65.58
45327;BME280;31062;49.678;24.560;2023-05-23T03:07:33;97962.41;;;10.21;65.74
45327;BME280;31062;49.678;24.560;2023-05-23T03:10:19;98076.75;;;10.78;65.67
45327;BME280;31062;49.678;24.560;2023-05-23T03:13:04;98019.97;;;10.59;65.88
45327;BME280;31062;49.678;24.560;2023-05-23T03:15:50;98036.00;;;10.61;66.17
45327;BME280;31062;49.678;24.560;2023-05-23T03:18:36;98033.94;;;10.61;66.29
45327;BME280;31062;49.678;24.560;2023-05-23T03:21:21;98057.47;;;10.70;66.85
45327;BME280;31062;49.678;24.560;2023-05-23T03:24:06;97878.47;;;9.36;67.38
45327;BME280;31062;49.678;24.560;2023-05-23T03:26:52;97920.09;;;9.65;67.09
45327;BME280;31062;49.678;24.560;2023-05-23T03:29:38;98081.81;;;10.62;67.80
45327;BME280;31062;49.678;24.560;2023-05-23T03:32:24;98065.91;;;10.62;67.29
45327;BME280;31062;49.678;24.560;2023-05-23T03:35:09;98042.84;;;10.50;67.08
45327;BME280;31062;49.678;24.560;2023-05-23T03:37:56;97876.50;;;9.47;66.95
45327;BME280;31062;49.678;24.560;2023-05-23T03:40:41;97887.63;;;9.66;66.96
45327;BME280;31062;49.678;24.560;2023-05-23T03:43:27;98064.94;;;10.77;67.23
45327;BME280;31062;49.678;24.560;2023-05-23T03:46:12;97990.63;;;10.56;67.80
45327;BME280;31062;49.678;24.560;2023-05-23T03:48:59;98045.66;;;10.98;67.48
45327;BME280;31062;49.678;24.560;2023-05-23T03:51:46;98057.94;;;11.15;67.35
45327;BME280;31062;49.678;24.560;2023-05-23T03:54:33;98063.78;;;11.19;67.75
45327;BME280;31062;49.678;24.560;2023-05-23T03:57:18;98047.13;;;11.19;68.01
45327;BME280;31062;49.678;24.560;2023-05-23T04:00:06;98047.13;;;11.19;67.88
45327;BME280;31062;49.678;24.560;2023-05-23T04:03:00;98051.50;;;11.22;68.03
45327;BME280;31062;49.678;24.560;2023-05-23T04:05:47;98063.19;;;11.11;67.67
45327;BME280;31062;49.678;24.560;2023-05-23T04:08:34;98053.25;;;11.27;67.40
45327;BME280;31062;49.678;24.560;2023-05-23T04:11:20;97868.19;;;10.02;66.90
45327;BME280;31062;49.678;24.560;2023-05-23T04:14:08;98030.19;;;11.15;66.90
45327;BME280;31062;49.678;24.560;2023-05-23T04:16:54;98037.94;;;11.26;66.92
45327;BME280;31062;49.678;24.560;2023-05-23T04:19:41;97863.88;;;10.18;66.79
45327;BME280;31062;49.678;24.560;2023-05-23T04:22:27;98058.63;;;11.54;66.76
45327;BME280;31062;49.678;24.560;2023-05-23T04:25:12;98064.94;;;11.54;66.48
45327;BME280;31062;49.678;24.560;2023-05-23T04:28:05;97874.34;;;10.49;66.67
45327;BME280;31062;49.678;24.560;2023-05-23T04:30:51;98060.22;;;11.85;66.28
45327;BME280;31062;49.678;24.560;2023-05-23T04:33:42;97918.66;;;11.07;65.01
45327;BME280;31062;49.678;24.560;2023-05-23T04:36:28;97914.56;;;11.08;65.11
45327;BME280;31062;49.678;24.560;2023-05-23T04:39:15;98000.44;;;11.84;64.84
45327;BME280;31062;49.678;24.560;2023-05-23T04:42:14;98032.53;;;12.28;64.92
45327;BME280;31062;49.678;24.560;2023-05-23T04:45:17;97954.56;;;12.05;64.46
45327;BME280;31062;49.678;24.560;2023-05-23T04:48:15;98053.78;;;12.97;65.05
45327;BME280;31062;49.678;24.560;2023-05-23T04:51:03;98038.00;;;13.11;64.66
45327;BME280;31062;49.678;24.560;2023-05-23T04:53:57;98013.97;;;13.16;63.53
45327;BME280;31062;49.678;24.560;2023-05-23T04:56:43;98048.50;;;13.67;63.10
45327;BME280;31062;49.678;24.560;2023-05-23T04:59:28;97886.53;;;12.81;62.72
45327;BME280;31062;49.678;24.560;2023-05-23T05:02:13;97918.66;;;13.38;62.28
45327;BME280;31062;49.678;24.560;2023-05-23T05:04:59;98029.69;;;14.58;62.45
45327;BME280;31062;49.678;24.560;2023-05-23T05:07:45;97896.59;;;14.12;60.12
45327;BME280;31062;49.678;24.560;2023-05-23T05:10:32;97905.41;;;14.44;58.59
45327;BME280;31062;49.678;24.560;2023-05-23T05:13:17;97892.59;;;14.64;56.44
45327;BME280;31062;49.678;24.560;2023-05-23T05:16:06;98069.59;;;16.11;56.03
45327;BME280;31062;49.678;24.560;2023-05-23T05:18:53;97901.88;;;15.44;54.98
45327;BME280;31062;49.678;24.560;2023-05-23T05:21:40;98026.34;;;16.66;54.40
45327;BME280;31062;49.678;24.560;2023-05-23T05:24:25;98045.16;;;17.07;53.08
45327;BME280;31062;49.678;24.560;2023-05-23T05:27:12;97872.94;;;16.20;52.64
45327;BME280;31062;49.678;24.560;2023-05-23T05:29:57;98039.41;;;17.62;51.65
45327;BME280;31062;49.678;24.560;2023-05-23T05:32:50;97903.09;;;16.94;51.34
45327;BME280;31062;49.678;24.560;2023-05-23T05:35:35;97888.88;;;17.03;50.05
45327;BME280;31062;49.678;24.560;2023-05-23T05:41:41;97916.63;;;17.74;48.21
45327;BME280;31062;49.678;24.560;2023-05-23T05:44:29;98047.34;;;18.77;47.13
45327;BME280;31062;49.678;24.560;2023-05-23T05:47:21;97943.28;;;18.40;47.58
45327;BME280;31062;49.678;24.560;2023-05-23T05:50:13;98054.81;;;19.22;46.68
45327;BME280;31062;49.678;24.560;2023-05-23T05:53:17;97884.38;;;18.40;46.45
45327;BME280;31062;49.678;24.560;2023-05-23T05:56:23;98032.38;;;19.57;46.33
45327;BME280;31062;49.678;24.560;2023-05-23T05:59:31;98026.63;;;19.73;46.21
45327;BME280;31062;49.678;24.560;2023-05-23T06:02:19;98007.63;;;19.71;45.36
45327;BME280;31062;49.678;24.560;2023-05-23T06:05:06;98005.63;;;19.93;45.35
45327;BME280;31062;49.678;24.560;2023-05-23T06:07:54;98008.69;;;20.00;44.46
45327;BME280;31062;49.678;24.560;2023-05-23T06:10:40;98029.03;;;20.18;44.65
45327;BME280;31062;49.678;24.560;2023-05-23T06:13:27;98013.81;;;20.25;44.51
45327;BME280;31062;49.678;24.560;2023-05-23T06:16:13;98034.72;;;20.38;44.03
45327;BME280;31062;49.678;24.560;2023-05-23T06:19:01;98045.25;;;20.37;42.97
45327;BME280;31062;49.678;24.560;2023-05-23T06:21:51;98025.75;;;20.43;44.17
45327;BME280;31062;49.678;24.560;2023-05-23T06:24:39;98012.31;;;20.42;44.64
45327;BME280;31062;49.678;24.560;2023-05-23T06:27:43;97873.34;;;19.52;44.11
45327;BME280;31062;49.678;24.560;2023-05-23T06:30:37;98025.16;;;20.66;43.52
45327;BME280;31062;49.678;24.560;2023-05-23T06:33:35;98059.19;;;20.72;44.33
45327;BME280;31062;49.678;24.560;2023-05-23T06:36:23;97862.66;;;19.68;44.65
45327;BME280;31062;49.678;24.560;2023-05-23T06:39:12;98024.66;;;20.94;44.76
45327;BME280;31062;49.678;24.560;2023-05-23T06:42:00;97914.00;;;20.28;42.98
45327;BME280;31062;49.678;24.560;2023-05-23T06:45:01;97986.69;;;20.95;43.23
45327;BME280;31062;49.678;24.560;2023-05-23T06:47:59;98014.34;;;21.22;42.57
45327;BME280;31062;49.678;24.560;2023-05-23T06:50:57;98015.59;;;21.39;43.54
45327;BME280;31062;49.678;24.560;2023-05-23T06:53:43;98019.56;;;21.53;43.16
45327;BME280;31062;49.678;24.560;2023-05-23T06:56:29;98017.19;;;21.68;41.75
45327;BME280;31062;49.678;24.560;2023-05-23T06:59:19;98010.47;;;21.79;40.41
45327;BME280;31062;49.678;24.560;2023-05-23T07:02:11;98005.78;;;21.87;41.42
45327;BME280;31062;49.678;24.560;2023-05-23T07:04:58;98008.16;;;21.95;39.74
45327;BME280;31062;49.678;24.560;2023-05-23T07:08:04;98004.13;;;22.02;39.79
45327;BME280;31062;49.678;24.560;2023-05-23T07:10:51;98000.22;;;22.13;39.90
45327;BME280;31062;49.678;24.560;2023-05-23T07:13:59;98015.78;;;22.14;39.77
45327;BME280;31062;49.678;24.560;2023-05-23T07:16:58;97999.53;;;22.40;39.42
45327;BME280;31062;49.678;24.560;2023-05-23T07:19:44;98006.88;;;22.50;37.69
45327;BME280;31062;49.678;24.560;2023-05-23T07:22:31;98002.66;;;22.51;37.85
45327;BME280;31062;49.678;24.560;2023-05-23T07:25:23;98020.59;;;22.61;38.05
45327;BME280;31062;49.678;24.560;2023-05-23T07:28:12;98025.75;;;22.69;37.48
45327;BME280;31062;49.678;24.560;2023-05-23T07:31:02;98015.50;;;22.82;36.53
45327;BME280;31062;49.678;24.560;2023-05-23T07:33:49;98009.28;;;22.87;36.55
45327;BME280;31062;49.678;24.560;2023-05-23T07:36:42;97898.09;;;22.21;36.57
45327;BME280;31062;49.678;24.560;2023-05-23T07:44:40;98002.94;;;23.16;36.25
45327;BME280;31062;49.678;24.560;2023-05-23T07:47:27;97897.34;;;22.46;34.68
45327;BME280;31062;49.678;24.560;2023-05-23T07:50:12;97983.75;;;23.11;33.88
45327;BME280;31062;49.678;24.560;2023-05-23T07:52:57;97863.66;;;22.26;34.79
45327;BME280;31062;49.678;24.560;2023-05-23T07:55:47;97853.78;;;22.27;33.77
45327;BME280;31062;49.678;24.560;2023-05-23T07:58:33;97917.06;;;22.72;33.35
45327;BME280;31062;49.678;24.560;2023-05-23T08:01:18;97941.50;;;22.89;32.95
45327;BME280;31062;49.678;24.560;2023-05-23T08:04:50;97995.94;;;23.19;32.13
45327;BME280;31062;49.678;24.560;2023-05-23T08:08:23;97982.28;;;23.10;31.65
45327;BME280;31062;49.678;24.560;2023-05-23T08:11:59;97984.56;;;23.15;32.50
45327;BME280;31062;49.678;24.560;2023-05-23T08:14:52;97996.06;;;23.24;32.81
45327;BME280;31062;49.678;24.560;2023-05-23T08:17:51;98018.78;;;23.28;30.57
45327;BME280;31062;49.678;24.560;2023-05-23T08:20:48;97984.84;;;23.28;29.64
45327;BME280;31062;49.678;24.560;2023-05-23T08:23:39;97976.88;;;23.20;30.79
45327;BME280;31062;49.678;24.560;2023-05-23T08:26:26;97943.09;;;22.96;30.69
45327;BME280;31062;49.678;24.560;2023-05-23T08:29:15;97969.63;;;23.13;31.06
45327;BME280;31062;49.678;24.560;2023-05-23T08:32:02;97840.25;;;22.22;32.01
45327;BME280;31062;49.678;24.560;2023-05-23T08:34:49;97976.16;;;23.19;31.72
45327;BME280;31062;49.678;24.560;2023-05-23T08:37:36;97984.75;;;23.24;31.66
45327;BME280;31062;49.678;24.560;2023-05-23T09:03:45;97929.81;;;23.33;31.22
45327;BME280;31062;49.678;24.560;2023-05-23T09:06:57;97955.31;;;23.35;31.71
45327;BME280;31062;49.678;24.560;2023-05-23T09:09:43;97814.75;;;22.48;31.37
45327;BME280;31062;49.678;24.560;2023-05-23T09:12:32;97931.16;;;23.30;30.54
45327;BME280;31062;49.678;24.560;2023-05-23T09:15:18;97818.25;;;22.46;31.37
45327;BME280;31062;49.678;24.560;2023-05-23T09:18:04;97970.41;;;23.45;31.84
45327;BME280;31062;49.678;24.560;2023-05-23T09:20:51;97817.63;;;22.50;32.51
45327;BME280;31062;49.678;24.560;2023-05-23T09:23:38;97946.53;;;23.52;31.95
45327;BME280;31062;49.678;24.560;2023-05-23T09:26:26;97963.06;;;23.64;31.61
45327;BME280;31062;49.678;24.560;2023-05-23T09:29:13;97853.84;;;22.87;31.47
45327;BME280;31062;49.678;24.560;2023-05-23T09:32:11;97967.47;;;23.71;31.57
45327;BME280;31062;49.678;24.560;2023-05-23T09:35:00;97934.63;;;23.58;31.72
45327;BME280;31062;49.678;24.560;2023-05-23T09:37:48;97941.28;;;23.73;30.89
45327;BME280;31062;49.678;24.560;2023-05-23T09:40:33;97920.63;;;23.66;31.19
45327;BME280;31062;49.678;24.560;2023-05-23T09:43:21;97802.66;;;22.73;31.84
45327;BME280;31062;49.678;24.560;2023-05-23T09:46:10;97934.13;;;23.68;31.09
45327;BME280;31062;49.678;24.560;2023-05-23T09:48:55;97829.16;;;22.90;31.15
45327;BME280;31062;49.678;24.560;2023-05-23T09:51:41;97937.81;;;23.74;32.17
45327;BME280;31062;49.678;24.560;2023-05-23T09:54:27;97912.16;;;23.66;31.29
45327;BME280;31062;49.678;24.560;2023-05-23T09:57:14;97936.78;;;23.93;31.50
45327;BME280;31062;49.678;24.560;2023-05-23T10:00:02;97796.97;;;23.03;31.50
45327;BME280;31062;49.678;24.560;2023-05-23T10:05:56;97790.91;;;23.18;31.40
45327;BME280;31062;49.678;24.560;2023-05-23T10:08:45;97816.75;;;23.37;30.03
45327;BME280;31062;49.678;24.560;2023-05-23T10:11:50;97929.38;;;24.14;30.30
45327;BME280;31062;49.678;24.560;2023-05-23T10:14:44;97902.47;;;24.13;31.29
45327;BME280;31062;49.678;24.560;2023-05-23T10:17:40;97913.34;;;24.25;31.40
45327;BME280;31062;49.678;24.560;2023-05-23T10:20:30;97923.38;;;24.32;31.28
45327;BME280;31062;49.678;24.560;2023-05-23T10:23:16;97911.53;;;24.42;30.50
45327;BME280;31062;49.678;24.560;2023-05-23T10:26:04;97915.09;;;24.42;31.28
45327;BME280;31062;49.678;24.560;2023-05-23T10:28:50;97903.53;;;24.30;30.10
45327;BME280;31062;49.678;24.560;2023-05-23T10:31:36;97886.44;;;24.24;30.93
45327;BME280;31062;49.678;24.560;2023-05-23T10:40:52;97895.19;;;24.40;30.99
45327;BME280;31062;49.678;24.560;2023-05-23T10:43:53;97876.66;;;24.31;30.57
45327;BME280;31062;49.678;24.560;2023-05-23T10:46:51;97889.59;;;24.44;31.51
45327;BME280;31062;49.678;24.560;2023-05-23T10:50:02;97899.59;;;24.49;31.40
45327;BME280;31062;49.678;24.560;2023-05-23T10:52:52;97756.56;;;23.68;30.45
45327;BME280;31062;49.678;24.560;2023-05-23T10:55:53;97891.44;;;24.69;29.39
45327;BME280;31062;49.678;24.560;2023-05-23T10:58:52;97874.53;;;24.75;30.23
45327;BME280;31062;49.678;24.560;2023-05-23T11:01:40;97770.78;;;24.12;30.01
45327;BME280;31062;49.678;24.560;2023-05-23T11:04:32;97874.81;;;24.92;29.50
45327;BME280;31062;49.678;24.560;2023-05-23T11:07:32;97880.66;;;25.02;29.22
45327;BME280;31062;49.678;24.560;2023-05-23T11:10:27;97780.19;;;24.23;28.61
45327;BME280;31062;49.678;24.560;2023-05-23T11:16:46;97869.22;;;24.96;28.09
45327;BME280;31062;49.678;24.560;2023-05-23T11:19:35;97890.38;;;24.89;29.35
45327;BME280;31062;49.678;24.560;2023-05-23T11:22:31;97884.72;;;24.91;29.92
45327;BME280;31062;49.678;24.560;2023-05-23T11:28:26;97858.63;;;24.98;29.39
45327;BME280;31062;49.678;24.560;2023-05-23T11:31:11;97756.09;;;24.22;28.22
45327;BME280;31062;49.678;24.560;2023-05-23T11:33:57;97862.75;;;24.91;28.53
45327;BME280;31062;49.678;24.560;2023-05-23T11:36:42;97856.19;;;24.78;27.71
45327;BME280;31062;49.678;24.560;2023-05-23T11:39:28;97860.56;;;24.88;27.89
45327;BME280;31062;49.678;24.560;2023-05-23T11:42:13;97837.03;;;24.79;27.86
45327;BME280;31062;49.678;24.560;2023-05-23T11:44:58;97764.84;;;24.36;28.56
45327;BME280;31062;49.678;24.560;2023-05-23T11:47:44;97848.03;;;25.03;28.54
45327;BME280;31062;49.678;24.560;2023-05-23T11:50:30;97742.69;;;24.24;28.57
45327;BME280;31062;49.678;24.560;2023-05-23T11:53:16;97846.56;;;24.98;28.66
45327;BME280;31062;49.678;24.560;2023-05-23T11:56:07;97847.34;;;25.02;30.31
45327;BME280;31062;49.678;24.560;2023-05-23T11:58:56;97845.97;;;25.05;29.86
45327;BME280;31062;49.678;24.560;2023-05-23T12:01:42;97714.88;;;24.13;28.78
45327;BME280;31062;49.678;24.560;2023-05-23T12:04:28;97839.44;;;24.97;28.37
45327;BME280;31062;49.678;24.560;2023-05-23T12:07:15;97828.78;;;24.93;28.30
45327;BME280;31062;49.678;24.560;2023-05-23T12:10:03;97837.25;;;24.91;28.24
45327;BME280;31062;49.678;24.560;2023-05-23T12:12:53;97823.78;;;24.90;29.13
45327;BME280;31062;49.678;24.560;2023-05-23T12:15:39;97719.13;;;24.12;29.22
45327;BME280;31062;49.678;24.560;2023-05-23T12:18:31;97825.09;;;24.87;28.95
45327;BME280;31062;49.678;24.560;2023-05-23T12:21:17;97824.38;;;24.86;29.15
45327;BME280;31062;49.678;24.560;2023-05-23T12:24:18;97690.59;;;23.99;28.90
45327;BME280;31062;49.678;24.560;2023-05-23T12:27:07;97820.94;;;24.92;28.86
45327;BME280;31062;49.678;24.560;2023-05-23T12:30:13;97810.94;;;24.87;29.03
45327;BME280;31062;49.678;24.560;2023-05-23T12:33:09;97835.16;;;24.94;29.35
45327;BME280;31062;49.678;24.560;2023-05-23T12:36:06;97835.09;;;24.90;29.10
45327;BME280;31062;49.678;24.560;2023-05-23T12:38:52;97810.41;;;24.96;29.03
45327;BME280;31062;49.678;24.560;2023-05-23T12:41:44;97795.41;;;24.90;30.04
45327;BME280;31062;49.678;24.560;2023-05-23T12:44:39;97786.81;;;24.86;29.70
45327;BME280;31062;49.678;24.560;2023-05-23T12:47:33;97781.13;;;24.84;29.02
45327;BME280;31062;49.678;24.560;2023-05-23T12:50:24;97798.41;;;25.02;29.60
45327;BME280;31062;49.678;24.560;2023-05-23T12:53:22;97744.19;;;24.77;28.87
45327;BME280;31062;49.678;24.560;2023-05-23T12:56:19;97801.34;;;25.08;28.73
45327;BME280;31062;49.678;24.560;2023-05-23T12:59:08;97798.56;;;25.12;29.18
45327;BME280;31062;49.678;24.560;2023-05-23T13:01:54;97781.50;;;25.08;28.56
45327;BME280;31062;49.678;24.560;2023-05-23T13:04:45;97782.72;;;24.95;29.15
45327;BME280;31062;49.678;24.560;2023-05-23T13:07:34;97791.41;;;25.07;28.94
45327;BME280;31062;49.678;24.560;2023-05-23T13:10:19;97806.97;;;25.06;29.01
45327;BME280;31062;49.678;24.560;2023-05-23T13:13:08;97759.22;;;24.88;28.13
45327;BME280;31062;49.678;24.560;2023-05-23T13:15:55;97764.31;;;24.98;28.41
45327;BME280;31062;49.678;24.560;2023-05-23T13:18:40;97758.56;;;24.92;28.39
45327;BME280;31062;49.678;24.560;2023-05-23T13:21:26;97647.16;;;24.27;27.85
45327;BME280;31062;49.678;24.560;2023-05-23T13:24:20;97765.13;;;25.04;27.66
45327;BME280;31062;49.678;24.560;2023-05-23T13:27:19;97655.69;;;24.29;28.06
45327;BME280;31062;49.678;24.560;2023-05-23T13:30:11;97775.81;;;25.08;27.78
45327;BME280;31062;49.678;24.560;2023-05-23T13:32:59;97634.81;;;24.08;27.58
45327;BME280;31062;49.678;24.560;2023-05-23T13:35:44;97770.03;;;25.00;27.73
45327;BME280;31062;49.678;24.560;2023-05-23T13:38:44;97778.59;;;25.04;27.63
45327;BME280;31062;49.678;24.560;2023-05-23T13:41:29;97771.59;;;25.11;27.78
45327;BME280;31062;49.678;24.560;2023-05-23T13:44:21;97771.63;;;25.13;28.01
45327;BME280;31062;49.678;24.560;2023-05-23T13:47:12;97765.28;;;25.16;27.80
45327;BME280;31062;49.678;24.560;2023-05-23T13:50:05;97625.78;;;24.20;28.40
45327;BME280;31062;49.678;24.560;2023-05-23T13:52:51;97751.06;;;25.14;28.71
45327;BME280;31062;49.678;24.560;2023-05-23T13:55:39;97790.22;;;25.26;28.17
45327;BME280;31062;49.678;24.560;2023-05-23T13:58:35;97771.78;;;25.25;27.95
45327;BME280;31062;49.678;24.560;2023-05-23T14:01:20;97664.41;;;24.45;27.26
45327;BME280;31062;49.678;24.560;2023-05-23T14:04:09;97751.69;;;25.07;27.41
45327;BME280;31062;49.678;24.560;2023-05-23T14:06:58;97770.22;;;25.14;28.21
45327;BME280;31062;49.678;24.560;2023-05-23T14:09:48;97778.66;;;25.10;28.01
45327;BME280;31062;49.678;24.560;2023-05-23T14:12:47;97755.81;;;24.98;28.38
45327;BME280;31062;49.678;24.560;2023-05-23T14:15:46;97681.34;;;24.43;28.37
45327;BME280;31062;49.678;24.560;2023-05-23T14:18:46;97674.19;;;24.36;28.17
45327;BME280;31062;49.678;24.560;2023-05-23T14:21:36;97782.91;;;25.09;28.00
45327;BME280;31062;49.678;24.560;2023-05-23T14:24:26;97775.81;;;25.10;28.56
45327;BME280;31062;49.678;24.560;2023-05-23T14:27:13;97644.81;;;24.15;28.34
45327;BME280;31062;49.678;24.560;2023-05-23T14:29:59;97629.84;;;24.09;27.69
45327;BME280;31062;49.678;24.560;2023-05-23T14:32:48;97641.31;;;24.17;27.99
45327;BME280;31062;49.678;24.560;2023-05-23T14:35:37;97773.63;;;25.04;28.29
45327;BME280;31062;49.678;24.560;2023-05-23T14:38:26;97735.69;;;24.79;27.39
45327;BME280;31062;49.678;24.560;2023-05-23T14:41:19;97778.63;;;25.06;27.63
45327;BME280;31062;49.678;24.560;2023-05-23T14:44:22;97747.13;;;24.84;27.19
45327;BME280;31062;49.678;24.560;2023-05-23T14:47:09;97775.75;;;25.04;27.54
45327;BME280;31062;49.678;24.560;2023-05-23T14:50:05;97737.81;;;24.79;27.22
45327;BME280;31062;49.678;24.560;2023-05-23T14:52:57;97789.91;;;25.02;27.98
45327;BME280;31062;49.678;24.560;2023-05-23T14:55:47;97758.50;;;24.88;27.65
45327;BME280;31062;49.678;24.560;2023-05-23T14:58:33;97761.41;;;24.90;27.63
45327;BME280;31062;49.678;24.560;2023-05-23T15:01:28;97771.41;;;24.97;27.80
45327;BME280;31062;49.678;24.560;2023-05-23T15:04:19;97627.59;;;23.99;27.40
45327;BME280;31062;49.678;24.560;2023-05-23T15:07:06;97760.00;;;24.93;27.80
45327;BME280;31062;49.678;24.560;2023-05-23T15:09:53;97767.84;;;24.94;27.76
45327;BME280;31062;49.678;24.560;2023-05-23T15:12:50;97763.59;;;24.95;27.66
45327;BME280;31062;49.678;24.560;2023-05-23T15:15:36;97744.19;;;24.79;27.36
45327;BME280;31062;49.678;24.560;2023-05-23T15:18:31;97742.94;;;24.89;27.64
45327;BME280;31062;49.678;24.560;2023-05-23T15:21:29;97722.97;;;24.78;27.65
45327;BME280;31062;49.678;24.560;2023-05-23T15:24:19;97755.81;;;24.96;27.65
45327;BME280;31062;49.678;24.560;2023-05-23T15:27:06;97765.56;;;24.85;27.77
45327;BME280;31062;49.678;24.560;2023-05-23T15:30:10;97644.81;;;24.15;28.28
45327;BME280;31062;49.678;24.560;2023-05-23T15:32:56;97740.78;;;24.87;28.16
45327;BME280;31062;49.678;24.560;2023-05-23T15:35:46;97759.88;;;24.85;28.29
45327;BME280;31062;49.678;24.560;2023-05-23T15:38:35;97741.44;;;24.84;28.55
45327;BME280;31062;49.678;24.560;2023-05-23T15:41:23;97615.53;;;23.96;28.81
45327;BME280;31062;49.678;24.560;2023-05-23T15:44:12;97596.97;;;23.85;28.01
45327;BME280;31062;49.678;24.560;2023-05-23T15:47:07;97727.91;;;24.80;28.70